createdAt,value
2023-03-17T00:00:58.630Z,5.77
2023-03-17T00:03:29.539Z,5.75
2023-03-17T00:05:58.719Z,5.75
2023-03-17T00:08:30.016Z,5.73
2023-03-17T00:10:58.595Z,5.72
2023-03-17T00:13:27.101Z,5.72
2023-03-17T00:16:01.206Z,5.72
2023-03-17T00:18:31.820Z,5.72
2023-03-17T00:21:05.896Z,5.69
2023-03-17T00:23:35.489Z,5.69
2023-03-17T00:26:04.207Z,5.69
2023-03-17T00:28:35.329Z,5.67
2023-03-17T00:31:11.598Z,5.66
2023-03-17T00:33:40.723Z,5.65
2023-03-17T00:36:13.708Z,5.66
2023-03-17T00:38:42.199Z,5.67
2023-03-17T00:41:14.007Z,5.67
2023-03-17T00:43:46.236Z,5.68
2023-03-17T00:46:29.362Z,5.69
2023-03-17T00:48:59.827Z,5.70
2023-03-17T00:51:29.408Z,5.72
2023-03-17T00:53:58.117Z,5.71
2023-03-17T00:56:29.906Z,5.69
2023-03-17T00:58:58.964Z,5.68
2023-03-17T01:01:27.965Z,5.66
2023-03-17T01:03:57.589Z,5.63
2023-03-17T01:06:26.179Z,5.63
2023-03-17T01:08:55.373Z,5.64
2023-03-17T01:11:24.130Z,5.64
2023-03-17T01:13:54.585Z,5.64
2023-03-17T01:16:23.668Z,5.63
2023-03-17T01:18:52.460Z,5.62
2023-03-17T01:21:21.220Z,5.64
2023-03-17T01:23:49.820Z,5.66
2023-03-17T01:26:19.274Z,5.68
2023-03-17T01:28:48.087Z,5.69
2023-03-17T01:31:17.581Z,5.69
2023-03-17T01:33:47.694Z,5.71
2023-03-17T01:36:16.480Z,5.72
2023-03-17T01:38:48.276Z,5.72
2023-03-17T01:41:18.738Z,5.72
2023-03-17T01:43:50.134Z,5.72
2023-03-17T01:46:26.012Z,5.73
2023-03-17T01:49:06.929Z,5.73
2023-03-17T01:51:57.794Z,5.74
2023-03-17T01:54:35.014Z,5.72
2023-03-17T01:57:09.490Z,5.69
2023-03-17T01:59:42.418Z,5.68
2023-03-17T02:02:11.913Z,5.67
2023-03-17T02:04:41.116Z,5.68
2023-03-17T02:07:10.359Z,5.70
2023-03-17T02:09:44.846Z,5.71
2023-03-17T02:12:15.500Z,5.70
2023-03-17T02:14:44.546Z,5.72
2023-03-17T02:17:22.407Z,5.72
2023-03-17T02:19:51.940Z,5.73
2023-03-17T02:22:20.771Z,5.73
2023-03-17T02:24:56.051Z,5.72
2023-03-17T02:27:34.987Z,5.73
2023-03-17T02:30:06.904Z,5.73
2023-03-17T02:32:38.364Z,5.75
2023-03-17T02:35:10.518Z,5.76
2023-03-17T02:37:43.852Z,5.78
2023-03-17T02:40:14.430Z,5.80
2023-03-17T02:42:47.144Z,5.81
2023-03-17T02:45:16.150Z,5.85
2023-03-17T02:47:47.263Z,5.86
2023-03-17T02:50:24.128Z,5.88
2023-03-17T02:52:52.705Z,5.88
2023-03-17T02:55:21.495Z,5.87
2023-03-17T02:57:50.352Z,5.88
2023-03-17T03:00:21.717Z,5.89
2023-03-17T03:02:51.478Z,5.87
2023-03-17T03:05:25.057Z,5.88
2023-03-17T03:07:54.278Z,5.89
2023-03-17T03:10:23.288Z,5.91
2023-03-17T03:12:53.610Z,5.94
2023-03-17T03:15:23.487Z,5.94
2023-03-17T03:17:52.293Z,5.91
2023-03-17T03:20:22.303Z,5.90
2023-03-17T03:22:51.587Z,5.89
2023-03-17T03:25:22.318Z,5.88
2023-03-17T03:27:51.131Z,5.88
2023-03-17T03:30:19.745Z,5.89
2023-03-17T03:32:52.732Z,5.89
2023-03-17T03:35:22.099Z,5.88
2023-03-17T03:37:51.082Z,5.87
2023-03-17T03:40:20.217Z,5.84
2023-03-17T03:42:48.997Z,5.83
2023-03-17T03:45:18.145Z,5.82
2023-03-17T03:47:46.932Z,5.82
2023-03-17T03:50:16.410Z,5.84
2023-03-17T03:52:45.977Z,5.86
2023-03-17T03:55:14.426Z,5.88
2023-03-17T03:57:44.269Z,5.90
2023-03-17T04:00:14.304Z,5.90
2023-03-17T04:02:45.208Z,5.93
2023-03-17T04:05:15.608Z,5.95
2023-03-17T04:07:47.988Z,5.94
2023-03-17T04:10:16.684Z,5.94
2023-03-17T04:12:46.114Z,5.94
2023-03-17T04:15:18.694Z,5.93
2023-03-17T04:17:48.796Z,5.94
2023-03-17T04:20:17.941Z,5.94
2023-03-17T04:22:49.566Z,5.93
2023-03-17T04:25:18.364Z,5.91
2023-03-17T04:27:47.411Z,5.90
2023-03-17T04:30:17.188Z,5.90
2023-03-17T04:32:46.716Z,5.92
2023-03-17T04:35:19.015Z,5.91
2023-03-17T04:37:49.615Z,5.89
2023-03-17T04:40:24.291Z,5.88
2023-03-17T04:42:53.456Z,5.90
2023-03-17T04:45:22.256Z,5.92
2023-03-17T04:47:51.286Z,5.92
2023-03-17T04:50:20.114Z,5.92
2023-03-17T04:52:52.860Z,5.90
2023-03-17T04:55:21.551Z,5.88
2023-03-17T04:57:50.212Z,5.89
2023-03-17T05:00:19.860Z,5.92
2023-03-17T05:02:48.601Z,5.92
2023-03-17T05:05:19.310Z,5.90
2023-03-17T05:07:47.986Z,5.88
2023-03-17T05:10:16.785Z,5.86
2023-03-17T05:12:46.042Z,5.85
2023-03-17T05:15:15.685Z,5.85
2023-03-17T05:17:44.425Z,5.84
2023-03-17T05:20:13.379Z,5.83
2023-03-17T05:22:42.497Z,5.83
2023-03-17T05:25:17.079Z,5.84
2023-03-17T05:27:46.677Z,5.83
2023-03-17T05:30:16.030Z,5.85
2023-03-17T05:32:45.702Z,5.86
2023-03-17T05:35:14.688Z,5.88
2023-03-17T05:37:45.329Z,5.90
2023-03-17T05:40:14.941Z,5.92
2023-03-17T05:42:43.538Z,5.93
2023-03-17T05:45:12.687Z,5.93
2023-03-17T05:47:44.805Z,5.91
2023-03-17T05:50:14.256Z,5.91
2023-03-17T05:52:43.562Z,5.94
2023-03-17T05:55:19.005Z,5.95
2023-03-17T05:57:49.834Z,5.96
2023-03-17T06:00:19.157Z,5.97
2023-03-17T06:02:49.102Z,5.97
2023-03-17T06:05:18.155Z,5.96
2023-03-17T06:07:54.951Z,5.96
2023-03-17T06:10:25.718Z,5.98
2023-03-17T06:12:54.366Z,5.97
2023-03-17T06:15:23.088Z,5.98
2023-03-17T06:17:52.018Z,5.98
2023-03-17T06:20:23.855Z,5.98
2023-03-17T06:23:03.906Z,5.98
2023-03-17T06:25:34.855Z,5.98
2023-03-17T06:28:05.815Z,6.00
2023-03-17T06:30:36.762Z,5.99
2023-03-17T06:33:09.556Z,6.00
2023-03-17T06:35:41.314Z,6.02
2023-03-17T06:38:10.101Z,6.04
2023-03-17T06:40:38.794Z,6.04
2023-03-17T06:43:07.803Z,6.03
2023-03-17T06:45:38.321Z,6.04
2023-03-17T06:48:07.227Z,6.03
2023-03-17T06:50:36.065Z,6.01
2023-03-17T06:53:07.398Z,6.00
2023-03-17T06:55:36.217Z,6.00
2023-03-17T06:58:06.911Z,6.01
2023-03-17T07:00:38.690Z,6.03
2023-03-17T07:03:07.418Z,6.05
2023-03-17T07:05:36.075Z,6.05
2023-03-17T07:08:04.689Z,6.05
2023-03-17T07:10:33.515Z,6.03
2023-03-17T07:13:05.319Z,6.01
2023-03-17T07:15:36.108Z,6.01
2023-03-17T07:18:07.177Z,6.02
2023-03-17T07:20:36.714Z,6.03
2023-03-17T07:23:05.613Z,6.04
2023-03-17T07:25:36.992Z,6.06
2023-03-17T07:28:05.831Z,6.11
2023-03-17T07:30:35.829Z,6.17
2023-03-17T07:33:05.079Z,6.20
2023-03-17T07:35:34.880Z,6.24
2023-03-17T07:38:03.926Z,6.29
2023-03-17T07:40:35.260Z,6.32
2023-03-17T07:43:04.801Z,6.33
2023-03-17T07:45:36.252Z,6.34
2023-03-17T07:48:05.391Z,6.37
2023-03-17T07:50:35.114Z,6.42
2023-03-17T07:53:04.180Z,6.43
2023-03-17T07:55:33.212Z,6.45
2023-03-17T07:58:03.087Z,6.45
2023-03-17T08:00:32.282Z,6.45
2023-03-17T08:03:10.441Z,6.45
2023-03-17T08:05:39.918Z,6.42
2023-03-17T08:08:12.909Z,6.40
2023-03-17T08:10:42.726Z,6.36
2023-03-17T08:13:11.288Z,6.33
2023-03-17T08:15:42.581Z,6.32
2023-03-17T08:18:11.384Z,6.31
2023-03-17T08:20:41.066Z,6.33
2023-03-17T08:23:11.599Z,6.35
2023-03-17T08:25:40.889Z,6.35
2023-03-17T08:28:10.517Z,6.36
2023-03-17T08:30:39.931Z,6.38
2023-03-17T08:33:09.629Z,6.42
2023-03-17T08:35:41.903Z,6.45
2023-03-17T08:38:11.443Z,6.49
2023-03-17T08:40:40.150Z,6.55
2023-03-17T08:43:09.573Z,6.59
2023-03-17T08:45:39.312Z,6.59
2023-03-17T08:48:08.682Z,6.58
2023-03-17T08:50:38.068Z,6.53
2023-03-17T08:53:08.904Z,6.53
2023-03-17T08:55:38.137Z,6.53
2023-03-17T08:58:06.671Z,6.54
2023-03-17T09:00:36.259Z,6.51
2023-03-17T09:03:06.003Z,6.47
2023-03-17T09:05:37.590Z,6.46
2023-03-17T09:08:07.840Z,6.45
2023-03-17T09:10:37.256Z,6.48
2023-03-17T09:13:09.224Z,6.49
2023-03-17T09:15:40.760Z,6.49
2023-03-17T09:18:09.557Z,6.46
2023-03-17T09:20:38.144Z,6.46
2023-03-17T09:23:10.963Z,6.46
2023-03-17T09:25:40.045Z,6.51
2023-03-17T09:28:12.202Z,6.55
2023-03-17T09:30:42.991Z,6.59
2023-03-17T09:33:14.734Z,6.66
2023-03-17T09:35:43.586Z,6.71
2023-03-17T09:38:13.117Z,6.71
2023-03-17T09:40:48.255Z,6.68
2023-03-17T09:43:38.988Z,6.68
2023-03-17T09:46:28.303Z,6.68
2023-03-17T09:49:02.275Z,6.66
2023-03-17T09:51:43.736Z,6.65
2023-03-17T09:54:18.698Z,6.65
2023-03-17T09:56:57.906Z,6.61
2023-03-17T09:59:42.186Z,6.59
2023-03-17T10:02:27.978Z,6.57
2023-03-17T10:04:57.628Z,6.50
2023-03-17T10:07:29.869Z,6.42
2023-03-17T10:10:03.645Z,6.39
2023-03-17T10:12:49.920Z,6.41
2023-03-17T10:15:20.994Z,6.44
2023-03-17T10:17:52.058Z,6.45
2023-03-17T10:20:31.153Z,6.44
2023-03-17T10:23:07.588Z,6.45
2023-03-17T10:25:36.769Z,6.48
2023-03-17T10:28:30.143Z,6.48
2023-03-17T10:31:23.086Z,6.47
2023-03-17T10:34:11.933Z,6.43
2023-03-17T10:36:44.697Z,6.41
2023-03-17T10:39:16.305Z,6.39
2023-03-17T10:41:58.570Z,6.36
2023-03-17T10:44:56.682Z,6.36
2023-03-17T10:47:41.538Z,6.33
2023-03-17T10:50:29.243Z,6.29
2023-03-17T10:53:07.840Z,6.26
2023-03-17T10:55:42.874Z,6.25
2023-03-17T10:58:15.501Z,6.25
2023-03-17T11:01:13.433Z,6.23
2023-03-17T11:03:42.178Z,6.21
2023-03-17T11:06:13.030Z,6.20
2023-03-17T11:08:49.179Z,6.23
2023-03-17T11:11:34.979Z,6.27
2023-03-17T11:14:12.061Z,6.29
2023-03-17T11:16:54.214Z,6.30
2023-03-17T11:19:47.858Z,6.26
2023-03-17T11:22:21.361Z,6.22
2023-03-17T11:25:19.881Z,6.18
2023-03-17T11:28:00.066Z,6.17
2023-03-17T11:30:34.878Z,6.16
2023-03-17T11:33:38.730Z,6.15
2023-03-17T11:36:19.486Z,6.14
2023-03-17T11:39:23.522Z,6.13
2023-03-17T11:42:06.281Z,6.11
2023-03-17T11:45:09.087Z,6.16
2023-03-17T11:47:45.268Z,6.18
2023-03-17T11:50:22.859Z,6.18
2023-03-17T11:52:59.266Z,6.19
2023-03-17T11:55:45.014Z,6.18
2023-03-17T11:58:25.235Z,6.18
2023-03-17T12:00:58.740Z,6.18
2023-03-17T12:03:33.672Z,6.19
2023-03-17T12:06:05.814Z,6.16
2023-03-17T12:08:42.675Z,6.15
2023-03-17T12:11:22.274Z,6.15
2023-03-17T12:13:58.767Z,6.12
2023-03-17T12:16:35.945Z,6.13
2023-03-17T12:19:11.823Z,6.17
2023-03-17T12:22:23.012Z,6.20
2023-03-17T12:25:05.070Z,6.18
2023-03-17T12:27:37.546Z,6.17
2023-03-17T12:30:15.707Z,6.16
2023-03-17T12:32:53.743Z,6.17
2023-03-17T12:35:28.231Z,6.19
2023-03-17T12:38:14.673Z,6.26
2023-03-17T12:41:15.996Z,6.32
2023-03-17T12:43:59.129Z,6.38
2023-03-17T12:47:07.105Z,6.42
2023-03-17T12:49:54.477Z,6.40
2023-03-17T12:52:32.429Z,6.35
2023-03-17T12:55:02.248Z,6.35
2023-03-17T12:57:47.268Z,6.34
2023-03-17T13:00:17.342Z,6.29
2023-03-17T13:02:49.741Z,6.25
2023-03-17T13:05:19.844Z,6.26
2023-03-17T13:07:55.137Z,6.26
2023-03-17T13:10:42.174Z,6.26
2023-03-17T13:13:21.743Z,6.32
2023-03-17T13:15:55.593Z,6.37
2023-03-17T13:18:34.684Z,6.36
2023-03-17T13:21:07.349Z,6.29
2023-03-17T13:23:48.792Z,6.24
2023-03-17T13:26:22.173Z,6.20
2023-03-17T13:28:52.830Z,6.15
2023-03-17T13:31:27.523Z,6.13
2023-03-17T13:34:18.144Z,6.15
2023-03-17T13:36:59.259Z,6.13
2023-03-17T13:39:43.037Z,6.09
2023-03-17T13:42:30.770Z,6.06
2023-03-17T13:45:07.395Z,6.07
2023-03-17T13:47:38.528Z,6.08
2023-03-17T13:50:21.790Z,6.05
2023-03-17T13:52:55.751Z,6.01
2023-03-17T13:55:25.169Z,5.96
2023-03-17T13:58:11.951Z,5.92
2023-03-17T14:00:47.656Z,5.90
2023-03-17T14:03:22.589Z,5.82
2023-03-17T14:05:52.985Z,5.75
2023-03-17T14:08:28.870Z,5.71
2023-03-17T14:11:01.859Z,5.70
2023-03-17T14:13:36.931Z,5.71
2023-03-17T14:16:21.725Z,5.69
2023-03-17T14:18:59.099Z,5.68
2023-03-17T14:21:32.684Z,5.68
2023-03-17T14:24:04.576Z,5.63
2023-03-17T14:26:33.354Z,5.61
2023-03-17T14:29:03.526Z,5.60
2023-03-17T14:31:33.657Z,5.59
2023-03-17T14:34:02.543Z,5.55
2023-03-17T14:36:33.040Z,5.52
2023-03-17T14:39:01.984Z,5.50
2023-03-17T14:41:32.829Z,5.50
2023-03-17T14:44:08.689Z,5.49
2023-03-17T14:46:38.890Z,5.45
2023-03-17T14:49:18.792Z,5.40
2023-03-17T14:51:53.645Z,5.33
2023-03-17T14:54:25.660Z,5.29
2023-03-17T14:57:05.418Z,5.26
2023-03-17T14:59:39.109Z,5.25
2023-03-17T15:02:25.257Z,5.24
2023-03-17T15:05:00.062Z,5.23
2023-03-17T15:07:29.940Z,5.25
2023-03-17T15:10:02.436Z,5.27
2023-03-17T15:12:31.970Z,5.28
2023-03-17T15:15:03.293Z,5.24
2023-03-17T15:17:36.853Z,5.22
2023-03-17T15:20:07.710Z,5.21
2023-03-17T15:22:42.331Z,5.16
2023-03-17T15:25:35.501Z,5.13
2023-03-17T15:28:12.213Z,5.10
2023-03-17T15:30:50.028Z,5.07
2023-03-17T15:33:23.698Z,5.05
2023-03-17T15:36:00.264Z,5.04
2023-03-17T15:38:30.298Z,5.04
2023-03-17T15:40:59.105Z,5.03
2023-03-17T15:43:27.824Z,5.02
2023-03-17T15:46:04.647Z,5.03
2023-03-17T15:48:36.389Z,5.02
2023-03-17T15:51:05.599Z,5.01
2023-03-17T15:53:35.055Z,5.01
2023-03-17T15:56:04.910Z,4.98
2023-03-17T15:58:35.140Z,4.98
2023-03-17T16:01:04.751Z,4.95
2023-03-17T16:03:34.741Z,4.94
2023-03-17T16:06:04.709Z,4.92
2023-03-17T16:08:34.029Z,4.89
2023-03-17T16:11:02.611Z,4.86
2023-03-17T16:13:32.067Z,4.85
2023-03-17T16:16:05.772Z,4.84
2023-03-17T16:18:37.121Z,4.82
2023-03-17T16:21:09.384Z,4.79
2023-03-17T16:23:41.195Z,4.79
2023-03-17T16:26:15.943Z,4.78
2023-03-17T16:28:46.318Z,4.76
2023-03-17T16:31:26.804Z,4.75
2023-03-17T16:33:55.768Z,4.74
2023-03-17T16:36:26.145Z,4.73
2023-03-17T16:38:55.166Z,4.71
2023-03-17T16:41:25.352Z,4.70
2023-03-17T16:44:00.163Z,4.70
2023-03-17T16:46:34.875Z,4.72
2023-03-17T16:49:07.373Z,4.73
2023-03-17T16:51:36.045Z,4.76
2023-03-17T16:54:07.057Z,4.76
2023-03-17T16:56:36.622Z,4.75
2023-03-17T16:59:19.906Z,4.74
2023-03-17T17:01:48.894Z,4.73
2023-03-17T17:04:17.468Z,4.71
2023-03-17T17:06:47.601Z,4.67
2023-03-17T17:09:16.423Z,4.64
2023-03-17T17:11:45.807Z,4.62
2023-03-17T17:14:15.052Z,4.61
2023-03-17T17:16:44.232Z,4.58
2023-03-17T17:19:16.782Z,4.57
2023-03-17T17:21:45.533Z,4.58
2023-03-17T17:24:15.648Z,4.58
2023-03-17T17:26:44.295Z,4.58
2023-03-17T17:29:13.155Z,4.59
2023-03-17T17:31:42.024Z,4.57
2023-03-17T17:34:10.658Z,4.53
2023-03-17T17:36:39.647Z,4.51
2023-03-17T17:39:11.795Z,4.51
2023-03-17T17:41:40.652Z,4.51
2023-03-17T17:44:11.677Z,4.52
2023-03-17T17:46:42.380Z,4.54
2023-03-17T17:49:12.461Z,4.57
2023-03-17T17:51:41.444Z,4.57
2023-03-17T17:54:10.899Z,4.55
2023-03-17T17:56:46.937Z,4.53
2023-03-17T17:59:15.908Z,4.53
2023-03-17T18:01:45.214Z,4.55
2023-03-17T18:04:20.124Z,4.53
2023-03-17T18:06:49.241Z,4.52
2023-03-17T18:09:21.875Z,4.53
2023-03-17T18:11:51.642Z,4.51
2023-03-17T18:14:45.264Z,4.52
2023-03-17T18:18:28.206Z,4.52
2023-03-17T18:25:45.398Z,4.48
2023-03-17T18:32:14.008Z,4.48
2023-03-17T18:34:46.659Z,4.48
2023-03-17T18:37:16.796Z,4.50
2023-03-17T18:39:55.534Z,4.49
2023-03-17T18:42:34.448Z,4.49
2023-03-17T18:45:07.178Z,4.45
2023-03-17T18:47:39.227Z,4.43
2023-03-17T18:50:11.772Z,4.41
2023-03-17T18:52:42.765Z,4.40
2023-03-17T18:55:13.057Z,4.39
2023-03-17T18:57:44.724Z,4.39
2023-03-17T19:00:16.421Z,4.38
2023-03-17T19:02:45.827Z,4.38
2023-03-17T19:05:15.510Z,4.35
2023-03-17T19:07:45.489Z,4.30
2023-03-17T19:10:14.426Z,4.29
2023-03-17T19:12:45.620Z,4.27
2023-03-17T19:15:14.831Z,4.26
2023-03-17T19:17:47.240Z,4.24
2023-03-17T19:20:16.218Z,4.23
2023-03-17T19:22:46.444Z,4.25
2023-03-17T19:25:16.743Z,4.24
2023-03-17T19:27:45.580Z,4.22
2023-03-17T19:30:14.920Z,4.21
2023-03-17T19:32:44.565Z,4.21
2023-03-17T19:35:13.275Z,4.19
2023-03-17T19:37:42.058Z,4.18
2023-03-17T19:40:13.659Z,4.18
2023-03-17T19:42:43.458Z,4.17
2023-03-17T19:45:12.172Z,4.16
2023-03-17T19:47:41.408Z,4.17
2023-03-17T19:50:10.533Z,4.19
2023-03-17T19:52:39.625Z,4.19
2023-03-17T19:55:11.659Z,4.18
2023-03-17T19:57:40.705Z,4.18
2023-03-17T20:00:09.928Z,4.18
2023-03-17T20:02:40.202Z,4.17
2023-03-17T20:05:09.393Z,4.17
2023-03-17T20:07:41.359Z,4.17
2023-03-17T20:10:11.200Z,4.17
2023-03-17T20:12:40.659Z,4.17
2023-03-17T20:15:12.807Z,4.16
2023-03-17T20:17:41.866Z,4.14
2023-03-17T20:20:12.391Z,4.13
2023-03-17T20:22:44.024Z,4.13
2023-03-17T20:25:13.143Z,4.12
2023-03-17T20:27:44.202Z,4.10
2023-03-17T20:30:13.188Z,4.09
2023-03-17T20:32:41.899Z,4.08
2023-03-17T20:35:11.012Z,4.06
2023-03-17T20:37:40.081Z,4.03
2023-03-17T20:40:11.651Z,4.01
2023-03-17T20:42:40.673Z,3.98
2023-03-17T20:45:10.468Z,3.95
2023-03-17T20:47:41.215Z,3.93
2023-03-17T20:50:10.549Z,3.90
2023-03-17T20:52:40.054Z,3.89
2023-03-17T20:55:14.024Z,3.88
2023-03-17T20:57:45.723Z,3.87
2023-03-17T21:00:18.382Z,3.86
2023-03-17T21:02:50.272Z,3.85
2023-03-17T21:05:28.514Z,3.84
2023-03-17T21:07:57.866Z,3.83
2023-03-17T21:10:26.618Z,3.83
2023-03-17T21:12:57.491Z,3.81
2023-03-17T21:15:26.337Z,3.77
2023-03-17T21:17:55.129Z,3.76
2023-03-17T21:20:25.397Z,3.77
2023-03-17T21:22:54.209Z,3.76
2023-03-17T21:25:24.825Z,3.75
2023-03-17T21:27:54.192Z,3.74
2023-03-17T21:30:22.710Z,3.73
2023-03-17T21:32:51.751Z,3.72
2023-03-17T21:35:22.142Z,3.71
2023-03-17T21:37:53.641Z,3.70
2023-03-17T21:40:23.352Z,3.68
2023-03-17T21:42:52.902Z,3.68
2023-03-17T21:45:22.289Z,3.69
2023-03-17T21:47:51.160Z,3.70
2023-03-17T21:50:20.375Z,3.71
2023-03-17T21:52:49.547Z,3.71
2023-03-17T21:55:18.611Z,3.69
2023-03-17T21:57:47.322Z,3.68
2023-03-17T22:00:17.282Z,3.68
2023-03-17T22:02:46.800Z,3.67
2023-03-17T22:05:16.733Z,3.67
2023-03-17T22:07:46.173Z,3.67
2023-03-17T22:10:14.965Z,3.66
2023-03-17T22:12:44.348Z,3.66
2023-03-17T22:15:13.906Z,3.67
2023-03-17T22:17:44.084Z,3.67
2023-03-17T22:20:13.205Z,3.69
2023-03-17T22:22:46.877Z,3.69
2023-03-17T22:25:15.913Z,3.71
2023-03-17T22:27:44.816Z,3.69
2023-03-17T22:30:15.354Z,3.68
2023-03-17T22:32:43.992Z,3.66
2023-03-17T22:35:22.789Z,3.63
2023-03-17T22:37:51.825Z,3.62
2023-03-17T22:40:20.633Z,3.61
2023-03-17T22:42:52.054Z,3.61
2023-03-17T22:45:21.406Z,3.61
2023-03-17T22:47:50.394Z,3.61
2023-03-17T22:50:19.150Z,3.60
2023-03-17T22:52:48.142Z,3.59
2023-03-17T22:55:16.894Z,3.57
2023-03-17T22:57:46.561Z,3.53
2023-03-17T23:00:17.238Z,3.50
2023-03-17T23:02:46.850Z,3.51
2023-03-17T23:05:16.290Z,3.52
2023-03-17T23:07:53.046Z,3.51
2023-03-17T23:10:23.358Z,3.52
2023-03-17T23:12:56.897Z,3.52
2023-03-17T23:15:29.115Z,3.51
2023-03-17T23:17:58.386Z,3.46
2023-03-17T23:20:32.024Z,3.42
2023-03-17T23:23:01.073Z,3.38
2023-03-17T23:25:36.921Z,3.34
2023-03-17T23:28:07.059Z,3.32
2023-03-17T23:30:41.347Z,3.30
2023-03-17T23:33:10.591Z,3.30
2023-03-17T23:35:39.908Z,3.30
2023-03-17T23:38:19.597Z,3.28
2023-03-17T23:40:48.916Z,3.28
2023-03-17T23:43:17.561Z,3.28
2023-03-17T23:45:46.855Z,3.27
2023-03-17T23:48:16.709Z,3.26
2023-03-17T23:50:56.112Z,3.26
2023-03-17T23:53:25.407Z,3.25
2023-03-17T23:55:55.028Z,3.24
2023-03-17T23:58:25.552Z,3.22
